createdAt,value
2019-05-11T00:00:19.942Z,0.00
2019-05-11T00:01:19.972Z,0.00
2019-05-11T00:02:19.965Z,0.00
2019-05-11T00:03:19.992Z,0.00
2019-05-11T00:04:20.008Z,0.00
2019-05-11T00:05:20.016Z,0.00
2019-05-11T00:06:20.087Z,0.00
2019-05-11T00:07:20.051Z,0.00
2019-05-11T00:08:20.086Z,0.00
2019-05-11T00:09:20.087Z,0.00
2019-05-11T00:10:23.370Z,0.00
2019-05-11T00:11:20.135Z,0.00
2019-05-11T00:12:20.135Z,0.00
2019-05-11T00:13:20.153Z,0.00
2019-05-11T00:14:20.174Z,0.00
2019-05-11T00:15:20.191Z,0.00
2019-05-11T00:16:20.204Z,0.00
2019-05-11T00:17:20.217Z,0.00
2019-05-11T00:18:20.237Z,0.00
2019-05-11T00:19:20.249Z,0.00
2019-05-11T00:20:20.319Z,0.00
2019-05-11T00:21:20.290Z,0.00
2019-05-11T00:22:20.303Z,0.00
2019-05-11T00:23:20.315Z,0.00
2019-05-11T00:24:20.334Z,0.00
2019-05-11T00:25:20.350Z,0.00
2019-05-11T00:26:20.367Z,0.00
2019-05-11T00:27:20.379Z,0.00
2019-05-11T00:28:20.396Z,0.00
2019-05-11T00:29:20.418Z,0.00
2019-05-11T00:30:20.434Z,0.00
2019-05-11T00:31:20.450Z,0.00
2019-05-11T00:32:22.798Z,0.00
2019-05-11T00:33:20.482Z,0.00
2019-05-11T00:34:20.497Z,0.00
2019-05-11T00:35:20.513Z,0.00
2019-05-11T00:36:20.532Z,0.00
2019-05-11T00:37:20.546Z,0.00
2019-05-11T00:38:20.561Z,0.00
2019-05-11T00:39:20.578Z,0.00
2019-05-11T00:40:20.596Z,0.00
2019-05-11T00:41:20.616Z,0.00
2019-05-11T00:42:20.639Z,0.00
2019-05-11T00:43:20.641Z,0.00
2019-05-11T00:44:20.686Z,0.00
2019-05-11T00:45:20.678Z,0.00
2019-05-11T00:46:20.771Z,0.00
2019-05-11T00:47:20.713Z,0.00
2019-05-11T00:48:20.735Z,0.00
2019-05-11T00:49:20.747Z,0.00
2019-05-11T00:50:20.756Z,0.00
2019-05-11T00:51:20.785Z,0.00
2019-05-11T00:52:20.790Z,0.00
2019-05-11T00:53:20.803Z,0.00
2019-05-11T00:54:20.819Z,0.00
2019-05-11T00:55:20.836Z,0.00
2019-05-11T00:56:20.859Z,0.00
2019-05-11T00:57:20.878Z,0.00
2019-05-11T00:58:20.885Z,0.00
2019-05-11T00:59:22.110Z,0.00
2019-05-11T01:00:20.920Z,0.00
2019-05-11T01:01:20.938Z,0.00
2019-05-11T01:02:20.953Z,0.00
2019-05-11T01:03:20.967Z,0.00
2019-05-11T01:04:20.989Z,0.00
2019-05-11T01:05:21.017Z,0.00
2019-05-11T01:06:21.128Z,0.00
2019-05-11T01:07:21.034Z,0.00
2019-05-11T01:08:21.053Z,0.00
2019-05-11T01:09:21.126Z,0.00
2019-05-11T01:10:25.517Z,0.00
2019-05-11T01:11:21.099Z,0.00
2019-05-11T01:12:21.110Z,0.00
2019-05-11T01:13:21.158Z,0.00
2019-05-11T01:14:21.146Z,0.00
2019-05-11T01:15:21.165Z,0.00
2019-05-11T01:16:21.175Z,0.00
2019-05-11T01:17:21.200Z,0.00
2019-05-11T01:18:21.208Z,0.00
2019-05-11T01:19:21.234Z,0.00
2019-05-11T01:20:21.253Z,0.00
2019-05-11T01:21:21.260Z,0.00
2019-05-11T01:22:21.276Z,0.00
2019-05-11T01:23:21.296Z,0.00
2019-05-11T01:24:21.312Z,0.00
2019-05-11T01:25:21.329Z,0.00
2019-05-11T01:26:21.338Z,0.00
2019-05-11T01:27:21.357Z,0.00
2019-05-11T01:28:21.373Z,0.00
2019-05-11T01:29:21.390Z,0.00
2019-05-11T01:30:21.402Z,0.00
2019-05-11T01:31:21.418Z,0.00
2019-05-11T01:32:21.445Z,0.00
2019-05-11T01:33:21.450Z,0.00
2019-05-11T01:34:21.514Z,0.00
2019-05-11T01:35:21.494Z,0.00
2019-05-11T01:36:21.500Z,0.00
2019-05-11T01:37:21.520Z,0.00
2019-05-11T01:38:21.537Z,0.00
2019-05-11T01:39:21.569Z,0.00
2019-05-11T01:40:21.574Z,0.00
2019-05-11T01:41:21.586Z,0.00
2019-05-11T01:42:21.594Z,0.00
2019-05-11T01:43:21.611Z,0.00
2019-05-11T01:44:21.633Z,0.00
2019-05-11T01:45:21.647Z,0.00
2019-05-11T01:46:21.662Z,0.00
2019-05-11T01:47:21.683Z,0.00
2019-05-11T01:48:21.691Z,0.00
2019-05-11T01:49:21.713Z,0.00
2019-05-11T01:50:21.728Z,0.00
2019-05-11T01:51:21.743Z,0.00
2019-05-11T01:52:21.755Z,0.00
2019-05-11T01:53:21.777Z,0.00
2019-05-11T01:54:21.789Z,0.00
2019-05-11T01:55:21.805Z,0.00
2019-05-11T01:56:21.821Z,0.00
2019-05-11T01:57:21.842Z,0.00
2019-05-11T01:58:21.853Z,0.00
2019-05-11T01:59:21.872Z,0.00
2019-05-11T02:00:21.888Z,0.00
2019-05-11T02:01:21.912Z,0.00
2019-05-11T02:02:21.920Z,0.00
2019-05-11T02:03:21.931Z,0.00
2019-05-11T02:04:21.953Z,0.00
2019-05-11T02:05:21.973Z,0.00
2019-05-11T02:06:21.981Z,0.00
2019-05-11T02:07:22.002Z,0.00
2019-05-11T02:08:22.025Z,0.00
2019-05-11T02:09:22.030Z,0.00
2019-05-11T02:10:22.050Z,0.00
2019-05-11T02:11:22.066Z,0.00
2019-05-11T02:12:22.082Z,0.00
2019-05-11T02:13:22.094Z,0.00
2019-05-11T02:14:22.114Z,0.00
2019-05-11T02:15:22.141Z,0.00
2019-05-11T02:16:22.145Z,0.00
2019-05-11T02:17:22.168Z,0.00
2019-05-11T02:18:22.172Z,0.00
2019-05-11T02:19:22.197Z,0.00
2019-05-11T02:20:22.213Z,0.00
2019-05-11T02:21:22.227Z,0.00
2019-05-11T02:22:22.246Z,0.00
2019-05-11T02:23:22.260Z,0.00
2019-05-11T02:24:22.276Z,0.00
2019-05-11T02:25:22.293Z,0.00
2019-05-11T02:26:22.309Z,0.00
2019-05-11T02:27:22.328Z,0.00
2019-05-11T02:28:22.340Z,0.00
2019-05-11T02:29:22.359Z,0.00
2019-05-11T02:30:22.381Z,0.00
2019-05-11T02:31:22.392Z,0.00
2019-05-11T02:32:22.405Z,0.00
2019-05-11T02:33:22.425Z,0.00
2019-05-11T02:34:22.443Z,0.00
2019-05-11T02:35:22.456Z,0.00
2019-05-11T02:36:22.478Z,0.00
2019-05-11T02:37:22.491Z,0.00
2019-05-11T02:38:22.504Z,0.00
2019-05-11T02:39:22.520Z,0.00
2019-05-11T02:40:22.533Z,0.00
2019-05-11T02:41:35.773Z,0.00
2019-05-11T02:42:22.581Z,0.00
2019-05-11T02:43:22.579Z,0.00
2019-05-11T02:44:22.598Z,0.00
2019-05-11T02:45:22.617Z,0.00
2019-05-11T02:46:22.634Z,0.00
2019-05-11T02:47:22.704Z,0.00
2019-05-11T02:48:22.668Z,0.00
2019-05-11T02:49:22.683Z,0.00
2019-05-11T02:50:22.699Z,0.00
2019-05-11T02:51:22.717Z,0.00
2019-05-11T02:52:22.738Z,0.00
2019-05-11T02:53:22.766Z,0.00
2019-05-11T02:54:22.761Z,0.00
2019-05-11T02:55:22.776Z,0.00
2019-05-11T02:56:22.792Z,0.00
2019-05-11T02:57:22.811Z,0.00
2019-05-11T02:58:22.830Z,0.00
2019-05-11T02:59:22.841Z,0.00
2019-05-11T03:00:22.899Z,0.00
2019-05-11T03:01:22.873Z,0.00
2019-05-11T03:02:22.886Z,0.00
2019-05-11T03:03:22.906Z,0.00
2019-05-11T03:04:22.923Z,0.00
2019-05-11T03:05:22.938Z,0.00
2019-05-11T03:06:22.956Z,0.00
2019-05-11T03:07:22.973Z,0.00
2019-05-11T03:08:22.984Z,0.00
2019-05-11T03:09:23.006Z,0.00
2019-05-11T03:10:23.128Z,0.00
2019-05-11T03:11:23.037Z,0.00
2019-05-11T03:12:23.048Z,0.00
2019-05-11T03:13:23.071Z,0.00
2019-05-11T03:14:23.090Z,0.00
2019-05-11T03:15:23.108Z,0.00
2019-05-11T03:16:23.117Z,0.00
2019-05-11T03:17:23.141Z,0.00
2019-05-11T03:18:23.148Z,0.00
2019-05-11T03:19:23.167Z,0.00
2019-05-11T03:20:23.184Z,0.00
2019-05-11T03:21:23.202Z,0.00
2019-05-11T03:22:23.223Z,0.00
2019-05-11T03:23:23.236Z,0.00
2019-05-11T03:24:24.171Z,0.00
2019-05-11T03:25:23.261Z,0.00
2019-05-11T03:26:23.277Z,0.00
2019-05-11T03:27:23.300Z,0.00
2019-05-11T03:28:23.317Z,0.00
2019-05-11T03:29:23.327Z,0.00
2019-05-11T03:30:23.358Z,0.00
2019-05-11T03:31:23.367Z,0.00
2019-05-11T03:32:23.414Z,0.00
2019-05-11T03:33:23.389Z,0.00
2019-05-11T03:34:23.407Z,0.00
2019-05-11T03:35:23.470Z,0.00
2019-05-11T03:36:23.438Z,0.00
2019-05-11T03:37:23.456Z,5.63
2019-05-11T03:38:23.500Z,5.63
2019-05-11T03:39:23.543Z,5.63
2019-05-11T03:40:23.737Z,5.63
2019-05-11T03:41:23.523Z,5.63
2019-05-11T03:42:23.542Z,5.63
2019-05-11T03:43:23.565Z,5.63
2019-05-11T03:44:23.574Z,5.63
2019-05-11T03:45:23.588Z,5.63
2019-05-11T03:46:23.600Z,5.63
2019-05-11T03:47:23.617Z,11.25
2019-05-11T03:48:23.631Z,11.25
2019-05-11T03:49:23.650Z,11.25
2019-05-11T03:50:23.664Z,11.25
2019-05-11T03:51:23.684Z,11.25
2019-05-11T03:52:23.699Z,11.25
2019-05-11T03:53:23.710Z,11.25
2019-05-11T03:54:23.728Z,11.25
2019-05-11T03:55:23.744Z,11.25
2019-05-11T03:56:23.762Z,11.25
2019-05-11T03:57:23.785Z,11.25
2019-05-11T03:58:26.077Z,16.88
2019-05-11T03:59:23.810Z,16.88
2019-05-11T04:00:23.824Z,16.88
2019-05-11T04:01:23.854Z,16.88
2019-05-11T04:02:23.857Z,22.50
2019-05-11T04:03:23.881Z,22.50
2019-05-11T04:04:23.890Z,22.50
2019-05-11T04:05:23.905Z,22.50
2019-05-11T04:06:23.926Z,22.50
2019-05-11T04:07:23.940Z,22.50
2019-05-11T04:08:23.952Z,22.50
2019-05-11T04:09:23.973Z,22.50
2019-05-11T04:10:25.302Z,22.50
2019-05-11T04:11:24.003Z,28.13
2019-05-11T04:12:33.986Z,28.13
2019-05-11T04:13:24.042Z,28.13
2019-05-11T04:14:24.048Z,28.13
2019-05-11T04:15:24.071Z,28.13
2019-05-11T04:16:24.080Z,28.13
2019-05-11T04:17:24.097Z,33.75
2019-05-11T04:18:24.114Z,33.75
2019-05-11T04:19:24.152Z,33.75
2019-05-11T04:20:24.155Z,33.75
2019-05-11T04:21:24.165Z,33.75
2019-05-11T04:22:24.177Z,33.75
2019-05-11T04:23:24.207Z,33.75
2019-05-11T04:24:24.214Z,33.75
2019-05-11T04:25:24.226Z,33.75
2019-05-11T04:26:24.252Z,39.38
2019-05-11T04:27:24.264Z,39.38
2019-05-11T04:28:24.276Z,39.38
2019-05-11T04:29:24.289Z,45.00
2019-05-11T04:30:24.305Z,45.00
2019-05-11T04:31:24.321Z,45.00
2019-05-11T04:32:24.343Z,50.63
2019-05-11T04:33:24.353Z,50.63
2019-05-11T04:34:24.384Z,50.63
2019-05-11T04:35:24.412Z,56.25
2019-05-11T04:36:24.541Z,56.25
2019-05-11T04:37:24.424Z,56.25
2019-05-11T04:38:24.442Z,61.88
2019-05-11T04:39:24.452Z,61.88
2019-05-11T04:40:24.469Z,61.88
2019-05-11T04:41:24.485Z,61.88
2019-05-11T04:42:24.503Z,61.88
2019-05-11T04:43:24.518Z,61.88
2019-05-11T04:44:24.533Z,61.88
2019-05-11T04:45:24.547Z,61.88
2019-05-11T04:46:24.609Z,61.88
2019-05-11T04:47:24.577Z,61.88
2019-05-11T04:48:24.598Z,61.88
2019-05-11T04:49:24.622Z,61.88
2019-05-11T04:50:24.685Z,67.50
2019-05-11T04:51:24.649Z,67.50
2019-05-11T04:52:24.664Z,67.50
2019-05-11T04:53:24.675Z,67.50
2019-05-11T04:54:24.725Z,67.50
2019-05-11T04:55:24.722Z,67.50
2019-05-11T04:56:24.811Z,67.50
2019-05-11T04:57:24.754Z,67.50
2019-05-11T04:58:24.757Z,67.50
2019-05-11T04:59:24.778Z,67.50
2019-05-11T05:00:24.793Z,67.50
2019-05-11T05:01:24.914Z,67.50
2019-05-11T05:02:27.268Z,73.13
2019-05-11T05:03:39.853Z,73.13
2019-05-11T05:04:24.908Z,73.13
2019-05-11T05:05:24.960Z,73.13
2019-05-11T05:06:24.940Z,73.13
2019-05-11T05:07:24.901Z,73.13
2019-05-11T05:08:26.378Z,73.13
2019-05-11T05:09:25.032Z,73.13
2019-05-11T05:10:24.956Z,73.13
2019-05-11T05:11:24.974Z,73.13
2019-05-11T05:12:24.990Z,78.75
2019-05-11T05:13:29.280Z,78.75
2019-05-11T05:14:25.027Z,84.38
2019-05-11T05:15:25.036Z,84.38
2019-05-11T05:16:25.065Z,90.00
2019-05-11T05:17:25.064Z,90.00
2019-05-11T05:18:25.090Z,90.00
2019-05-11T05:19:25.951Z,90.00
2019-05-11T05:20:25.115Z,90.00
2019-05-11T05:21:25.128Z,90.00
2019-05-11T05:22:27.894Z,90.00
2019-05-11T05:23:25.165Z,90.00
2019-05-11T05:24:25.183Z,90.00
2019-05-11T05:25:25.264Z,90.00
2019-05-11T05:26:25.231Z,95.63
2019-05-11T05:27:25.246Z,95.63
2019-05-11T05:28:25.264Z,101.25
2019-05-11T05:29:25.276Z,101.25
2019-05-11T05:30:25.280Z,101.25
2019-05-11T05:31:25.296Z,101.25
2019-05-11T05:32:25.314Z,101.25
2019-05-11T05:33:25.328Z,101.25
2019-05-11T05:34:25.348Z,101.25
2019-05-11T05:35:25.406Z,101.25
2019-05-11T05:36:25.376Z,106.88
2019-05-11T05:37:25.407Z,112.50
2019-05-11T05:38:25.418Z,118.13
2019-05-11T05:39:25.432Z,118.13
2019-05-11T05:40:25.452Z,118.13
2019-05-11T05:41:25.462Z,118.13
2019-05-11T05:42:25.495Z,118.13
2019-05-11T05:43:28.326Z,118.13
2019-05-11T05:44:27.655Z,118.13
2019-05-11T05:45:25.529Z,118.13
2019-05-11T05:46:25.554Z,118.13
2019-05-11T05:47:25.559Z,118.13
2019-05-11T05:48:25.579Z,118.13
2019-05-11T05:49:25.597Z,118.13
2019-05-11T05:50:25.616Z,118.13
2019-05-11T05:51:25.627Z,118.13
2019-05-11T05:52:25.644Z,118.13
2019-05-11T05:53:25.689Z,112.50
2019-05-11T05:54:25.678Z,112.50
2019-05-11T05:55:25.693Z,112.50
2019-05-11T05:56:25.711Z,112.50
2019-05-11T05:57:25.722Z,112.50
2019-05-11T05:58:25.744Z,112.50
2019-05-11T05:59:25.764Z,112.50
2019-05-11T06:00:25.776Z,112.50
2019-05-11T06:01:25.794Z,112.50
2019-05-11T06:02:25.806Z,112.50
2019-05-11T06:03:25.821Z,112.50
2019-05-11T06:04:25.858Z,106.88
2019-05-11T06:05:25.856Z,106.88
2019-05-11T06:06:25.877Z,106.88
2019-05-11T06:07:25.895Z,101.25
2019-05-11T06:08:25.910Z,101.25
2019-05-11T06:09:25.934Z,95.63
2019-05-11T06:10:25.941Z,95.63
2019-05-11T06:11:25.958Z,95.63
2019-05-11T06:12:25.981Z,95.63
2019-05-11T06:13:43.552Z,95.63
2019-05-11T06:14:26.013Z,101.25
2019-05-11T06:15:26.027Z,106.88
2019-05-11T06:16:26.035Z,112.50
2019-05-11T06:17:26.059Z,118.13
2019-05-11T06:18:26.070Z,118.13
2019-05-11T06:19:26.097Z,118.13
2019-05-11T06:20:26.110Z,118.13
2019-05-11T06:21:26.133Z,112.50
2019-05-11T06:22:26.139Z,112.50
2019-05-11T06:23:26.156Z,112.50
2019-05-11T06:24:26.178Z,118.13
2019-05-11T06:25:26.203Z,118.13
2019-05-11T06:26:26.204Z,123.75
2019-05-11T06:27:26.235Z,129.38
2019-05-11T06:28:26.247Z,135.00
2019-05-11T06:29:26.267Z,140.63
2019-05-11T06:30:26.274Z,146.25
2019-05-11T06:31:26.297Z,151.88
2019-05-11T06:32:26.314Z,151.88
2019-05-11T06:33:26.324Z,151.88
2019-05-11T06:34:26.344Z,151.88
2019-05-11T06:35:26.359Z,151.88
2019-05-11T06:36:26.375Z,151.88
2019-05-11T06:37:26.397Z,151.88
2019-05-11T06:38:26.413Z,151.88
2019-05-11T06:39:26.426Z,146.25
2019-05-11T06:40:28.543Z,146.25
2019-05-11T06:41:26.475Z,146.25
2019-05-11T06:42:26.517Z,146.25
2019-05-11T06:43:26.497Z,146.25
2019-05-11T06:44:26.514Z,146.25
2019-05-11T06:45:26.529Z,146.25
2019-05-11T06:46:26.550Z,146.25
2019-05-11T06:47:26.567Z,140.63
2019-05-11T06:48:26.585Z,135.00
2019-05-11T06:49:26.604Z,129.38
2019-05-11T06:50:26.616Z,123.75
2019-05-11T06:51:26.633Z,123.75
2019-05-11T06:52:26.647Z,118.13
2019-05-11T06:53:26.669Z,118.13
2019-05-11T06:54:26.683Z,118.13
2019-05-11T06:55:26.702Z,112.50
2019-05-11T06:56:26.778Z,112.50
2019-05-11T06:57:26.731Z,118.13
2019-05-11T06:58:26.753Z,118.13
2019-05-11T06:59:26.769Z,118.13
2019-05-11T07:00:26.782Z,123.75
2019-05-11T07:01:26.860Z,123.75
2019-05-11T07:02:26.816Z,129.38
2019-05-11T07:03:26.834Z,135.00
2019-05-11T07:04:26.855Z,140.63
2019-05-11T07:05:26.929Z,146.25
2019-05-11T07:06:30.368Z,157.50
2019-05-11T07:07:26.905Z,163.13
2019-05-11T07:08:26.933Z,168.75
2019-05-11T07:09:26.936Z,174.38
2019-05-11T07:10:26.958Z,174.38
2019-05-11T07:11:26.970Z,180.00
2019-05-11T07:12:27.789Z,174.38
2019-05-11T07:13:27.018Z,174.38
2019-05-11T07:14:27.022Z,174.38
2019-05-11T07:15:27.042Z,168.75
2019-05-11T07:16:27.057Z,168.75
2019-05-11T07:17:27.071Z,168.75
2019-05-11T07:18:27.093Z,174.38
2019-05-11T07:19:27.110Z,174.38
2019-05-11T07:20:27.123Z,174.38
2019-05-11T07:21:27.155Z,174.38
2019-05-11T07:22:27.161Z,180.00
2019-05-11T07:23:27.171Z,180.00
2019-05-11T07:24:27.190Z,185.63
2019-05-11T07:25:27.210Z,185.63
2019-05-11T07:26:27.229Z,191.25
2019-05-11T07:27:27.246Z,191.25
2019-05-11T07:28:27.261Z,196.88
2019-05-11T07:29:27.278Z,202.50
2019-05-11T07:30:27.295Z,202.50
2019-05-11T07:31:27.315Z,202.50
2019-05-11T07:32:29.385Z,208.13
2019-05-11T07:33:28.682Z,202.50
2019-05-11T07:34:27.831Z,208.13
2019-05-11T07:35:27.960Z,208.13
2019-05-11T07:36:28.253Z,208.13
2019-05-11T07:37:27.961Z,202.50
2019-05-11T07:38:27.972Z,202.50
2019-05-11T07:39:27.894Z,202.50
2019-05-11T07:40:28.005Z,202.50
2019-05-11T07:41:28.092Z,202.50
2019-05-11T07:42:28.608Z,202.50
2019-05-11T07:43:28.738Z,202.50
2019-05-11T07:44:37.568Z,202.50
2019-05-11T07:45:28.325Z,208.13
2019-05-11T07:46:28.721Z,208.13
2019-05-11T07:47:27.907Z,208.13
2019-05-11T07:48:28.019Z,213.75
2019-05-11T07:49:29.223Z,213.75
2019-05-11T07:50:28.353Z,213.75
2019-05-11T07:51:28.711Z,213.75
2019-05-11T07:52:28.758Z,213.75
2019-05-11T07:53:28.033Z,213.75
2019-05-11T07:54:28.208Z,213.75
2019-05-11T07:55:28.305Z,219.38
2019-05-11T07:56:28.497Z,219.38
2019-05-11T07:57:28.401Z,225.00
2019-05-11T07:58:28.500Z,225.00
2019-05-11T07:59:28.962Z,230.63
2019-05-11T08:00:28.149Z,236.25
2019-05-11T08:01:28.350Z,241.88
2019-05-11T08:02:29.240Z,247.50
2019-05-11T08:03:28.472Z,247.50
2019-05-11T08:04:28.758Z,253.13
2019-05-11T08:05:28.501Z,258.75
2019-05-11T08:06:28.623Z,258.75
2019-05-11T08:07:28.503Z,264.38
2019-05-11T08:08:28.432Z,264.38
2019-05-11T08:09:28.070Z,270.00
2019-05-11T08:10:28.261Z,275.63
2019-05-11T08:11:31.386Z,275.63
2019-05-11T08:12:28.616Z,281.25
2019-05-11T08:13:28.382Z,281.25
2019-05-11T08:14:28.822Z,281.25
2019-05-11T08:15:28.467Z,281.25
2019-05-11T08:16:28.735Z,281.25
2019-05-11T08:17:28.633Z,275.63
2019-05-11T08:18:28.410Z,275.63
2019-05-11T08:19:28.429Z,275.63
2019-05-11T08:20:28.266Z,275.63
2019-05-11T08:21:28.539Z,281.25
2019-05-11T08:22:28.547Z,286.88
2019-05-11T08:23:28.658Z,286.88
2019-05-11T08:24:28.566Z,292.50
2019-05-11T08:25:28.763Z,292.50
2019-05-11T08:26:28.502Z,292.50
2019-05-11T08:27:28.639Z,298.13
2019-05-11T08:28:28.859Z,303.75
2019-05-11T08:29:28.285Z,309.38
2019-05-11T08:30:28.302Z,309.38
2019-05-11T08:31:28.320Z,309.38
2019-05-11T08:32:28.800Z,315.00
2019-05-11T08:33:28.530Z,320.63
2019-05-11T08:34:28.706Z,326.25
2019-05-11T08:35:31.224Z,326.25
2019-05-11T08:36:29.021Z,326.25
2019-05-11T08:37:28.590Z,326.25
2019-05-11T08:38:28.658Z,326.25
2019-05-11T08:39:28.971Z,326.25
2019-05-11T08:40:28.984Z,331.88
2019-05-11T08:41:28.487Z,326.25
2019-05-11T08:42:29.036Z,326.25
2019-05-11T08:43:28.684Z,320.63
2019-05-11T08:44:28.858Z,331.88
2019-05-11T08:45:28.555Z,326.25
2019-05-11T08:46:28.570Z,326.25
2019-05-11T08:47:28.588Z,331.88
2019-05-11T08:48:28.605Z,337.50
2019-05-11T08:49:28.897Z,337.50
2019-05-11T08:50:28.650Z,331.88
2019-05-11T08:51:28.658Z,337.50
2019-05-11T08:52:28.670Z,337.50
2019-05-11T08:53:28.687Z,326.25
2019-05-11T08:54:28.993Z,320.63
2019-05-11T08:55:29.115Z,309.38
2019-05-11T08:56:29.008Z,286.88
2019-05-11T08:57:28.755Z,298.13
2019-05-11T08:58:28.791Z,298.13
2019-05-11T08:59:28.790Z,303.75
2019-05-11T09:00:28.806Z,292.50
2019-05-11T09:01:28.909Z,286.88
2019-05-11T09:02:28.852Z,298.13
2019-05-11T09:03:28.855Z,315.00
2019-05-11T09:04:29.071Z,315.00
2019-05-11T09:05:28.888Z,303.75
2019-05-11T09:06:28.908Z,303.75
2019-05-11T09:07:28.927Z,331.88
2019-05-11T09:08:28.947Z,337.50
2019-05-11T09:09:28.963Z,337.50
2019-05-11T09:10:28.972Z,348.75
2019-05-11T09:11:28.990Z,348.75
2019-05-11T09:12:29.057Z,371.25
2019-05-11T09:13:29.036Z,371.25
2019-05-11T09:14:29.039Z,365.63
2019-05-11T09:15:36.576Z,371.25
2019-05-11T09:16:29.225Z,365.63
2019-05-11T09:17:29.097Z,388.13
2019-05-11T09:18:29.111Z,399.38
2019-05-11T09:19:29.132Z,393.75
2019-05-11T09:20:29.145Z,405.00
2019-05-11T09:21:29.155Z,399.38
2019-05-11T09:22:29.180Z,399.38
2019-05-11T09:23:36.995Z,371.25
2019-05-11T09:24:29.230Z,382.50
2019-05-11T09:25:29.234Z,354.38
2019-05-11T09:26:29.265Z,326.25
2019-05-11T09:27:29.266Z,326.25
2019-05-11T09:28:29.605Z,315.00
2019-05-11T09:29:29.304Z,292.50
2019-05-11T09:30:29.312Z,292.50
2019-05-11T09:31:29.329Z,253.13
2019-05-11T09:32:29.347Z,253.13
2019-05-11T09:33:29.368Z,241.88
2019-05-11T09:34:29.381Z,236.25
2019-05-11T09:35:29.412Z,219.38
2019-05-11T09:36:29.454Z,196.88
2019-05-11T09:37:29.429Z,230.63
2019-05-11T09:38:29.449Z,247.50
2019-05-11T09:39:29.468Z,258.75
2019-05-11T09:40:29.488Z,298.13
2019-05-11T09:41:29.503Z,315.00
2019-05-11T09:42:29.516Z,326.25
2019-05-11T09:43:29.540Z,320.63
2019-05-11T09:44:29.547Z,337.50
2019-05-11T09:45:43.598Z,320.63
2019-05-11T09:46:29.586Z,281.25
2019-05-11T09:47:29.603Z,230.63
2019-05-11T09:48:29.622Z,258.75
2019-05-11T09:49:43.867Z,253.13
2019-05-11T09:50:29.662Z,225.00
2019-05-11T09:51:29.668Z,225.00
2019-05-11T09:52:32.396Z,230.63
2019-05-11T09:53:29.702Z,219.38
2019-05-11T09:54:29.746Z,196.88
2019-05-11T09:55:29.734Z,219.38
2019-05-11T09:56:29.750Z,185.63
2019-05-11T09:57:29.767Z,191.25
2019-05-11T09:58:29.788Z,196.88
2019-05-11T09:59:29.797Z,208.13
2019-05-11T10:00:29.819Z,196.88
2019-05-11T10:01:29.843Z,213.75
2019-05-11T10:02:29.851Z,236.25
2019-05-11T10:03:29.869Z,270.00
2019-05-11T10:04:29.885Z,275.63
2019-05-11T10:05:29.913Z,275.63
2019-05-11T10:06:29.921Z,241.88
2019-05-11T10:07:32.489Z,230.63
2019-05-11T10:08:29.980Z,236.25
2019-05-11T10:09:29.985Z,270.00
2019-05-11T10:10:30.114Z,275.63
2019-05-11T10:11:30.018Z,247.50
2019-05-11T10:12:30.025Z,219.38
2019-05-11T10:13:30.048Z,225.00
2019-05-11T10:14:30.054Z,219.38
2019-05-11T10:15:30.075Z,225.00
2019-05-11T10:16:30.085Z,225.00
2019-05-11T10:17:30.103Z,225.00
2019-05-11T10:18:30.120Z,230.63
2019-05-11T10:19:30.159Z,241.88
2019-05-11T10:20:30.153Z,281.25
2019-05-11T10:21:30.169Z,292.50
2019-05-11T10:22:30.190Z,320.63
2019-05-11T10:23:30.215Z,337.50
2019-05-11T10:24:30.222Z,348.75
2019-05-11T10:25:30.235Z,354.38
2019-05-11T10:26:30.259Z,343.13
2019-05-11T10:27:30.286Z,331.88
2019-05-11T10:28:30.306Z,331.88
2019-05-11T10:29:33.654Z,326.25
2019-05-11T10:30:30.334Z,326.25
2019-05-11T10:31:30.352Z,320.63
2019-05-11T10:32:30.373Z,303.75
2019-05-11T10:33:30.383Z,292.50
2019-05-11T10:34:30.389Z,309.38
2019-05-11T10:35:30.411Z,365.63
2019-05-11T10:36:30.421Z,365.63
2019-05-11T10:37:30.434Z,348.75
2019-05-11T10:38:30.454Z,337.50
2019-05-11T10:39:30.480Z,303.75
2019-05-11T10:40:30.490Z,298.13
2019-05-11T10:41:30.507Z,303.75
2019-05-11T10:42:30.525Z,286.88
2019-05-11T10:43:30.658Z,303.75
2019-05-11T10:44:30.557Z,303.75
2019-05-11T10:45:30.578Z,298.13
2019-05-11T10:46:30.589Z,292.50
2019-05-11T10:47:30.604Z,309.38
2019-05-11T10:48:30.620Z,292.50
2019-05-11T10:49:30.633Z,275.63
2019-05-11T10:50:30.658Z,275.63
2019-05-11T10:51:30.683Z,270.00
2019-05-11T10:52:30.694Z,270.00
2019-05-11T10:53:30.707Z,275.63
2019-05-11T10:54:30.725Z,270.00
2019-05-11T10:55:30.736Z,253.13
2019-05-11T10:56:30.759Z,270.00
2019-05-11T10:57:30.774Z,281.25
2019-05-11T10:58:30.789Z,264.38
2019-05-11T10:59:30.807Z,247.50
2019-05-11T11:00:30.821Z,241.88
2019-05-11T11:01:30.851Z,258.75
2019-05-11T11:02:30.855Z,264.38
2019-05-11T11:03:30.882Z,286.88
2019-05-11T11:04:30.901Z,270.00
2019-05-11T11:05:30.905Z,275.63
2019-05-11T11:06:30.925Z,292.50
2019-05-11T11:07:30.948Z,275.63
2019-05-11T11:08:30.959Z,270.00
2019-05-11T11:09:31.010Z,286.88
2019-05-11T11:10:31.006Z,298.13
2019-05-11T11:11:31.004Z,270.00
2019-05-11T11:12:31.019Z,281.25
2019-05-11T11:13:31.042Z,286.88
2019-05-11T11:14:31.059Z,286.88
2019-05-11T11:15:31.073Z,286.88
2019-05-11T11:16:38.761Z,286.88
2019-05-11T11:17:31.105Z,286.88
2019-05-11T11:18:31.128Z,292.50
2019-05-11T11:19:31.138Z,286.88
2019-05-11T11:20:31.159Z,286.88
2019-05-11T11:21:31.174Z,281.25
2019-05-11T11:22:39.371Z,292.50
2019-05-11T11:23:31.208Z,264.38
2019-05-11T11:24:31.224Z,258.75
2019-05-11T11:25:31.255Z,253.13
2019-05-11T11:26:31.266Z,247.50
2019-05-11T11:27:31.276Z,247.50
2019-05-11T11:28:31.295Z,236.25
2019-05-11T11:29:31.314Z,230.63
2019-05-11T11:30:31.330Z,225.00
2019-05-11T11:31:31.340Z,225.00
2019-05-11T11:32:31.357Z,213.75
2019-05-11T11:33:31.379Z,219.38
2019-05-11T11:34:31.543Z,219.38
2019-05-11T11:35:31.409Z,225.00
2019-05-11T11:36:31.425Z,208.13
2019-05-11T11:37:31.436Z,202.50
2019-05-11T11:38:31.465Z,202.50
2019-05-11T11:39:31.474Z,202.50
2019-05-11T11:40:31.499Z,202.50
2019-05-11T11:41:31.504Z,208.13
2019-05-11T11:42:31.524Z,219.38
2019-05-11T11:43:31.543Z,219.38
2019-05-11T11:44:31.594Z,213.75
2019-05-11T11:45:31.574Z,230.63
2019-05-11T11:46:31.592Z,225.00
2019-05-11T11:47:31.609Z,230.63
2019-05-11T11:48:31.655Z,213.75
2019-05-11T11:49:31.639Z,225.00
2019-05-11T11:50:31.661Z,230.63
2019-05-11T11:51:31.677Z,219.38
2019-05-11T11:52:31.697Z,219.38
2019-05-11T11:53:31.707Z,213.75
2019-05-11T11:54:31.722Z,213.75
2019-05-11T11:55:31.741Z,196.88
2019-05-11T11:56:31.759Z,196.88
2019-05-11T11:57:31.775Z,185.63
2019-05-11T11:58:31.792Z,180.00
2019-05-11T11:59:31.807Z,174.38
2019-05-11T12:00:31.826Z,168.75
2019-05-11T12:01:31.841Z,174.38
2019-05-11T12:02:31.857Z,180.00
2019-05-11T12:03:31.873Z,163.13
2019-05-11T12:04:31.887Z,174.38
2019-05-11T12:05:31.905Z,185.63
2019-05-11T12:06:31.934Z,185.63
2019-05-11T12:07:31.938Z,157.50
2019-05-11T12:08:31.957Z,151.88
2019-05-11T12:09:31.971Z,140.63
2019-05-11T12:10:31.988Z,135.00
2019-05-11T12:11:32.005Z,123.75
2019-05-11T12:12:32.021Z,129.38
2019-05-11T12:13:32.042Z,123.75
2019-05-11T12:14:32.058Z,123.75
2019-05-11T12:15:32.068Z,135.00
2019-05-11T12:16:32.082Z,129.38
2019-05-11T12:17:32.098Z,151.88
2019-05-11T12:18:32.119Z,151.88
2019-05-11T12:19:32.133Z,135.00
2019-05-11T12:20:32.152Z,140.63
2019-05-11T12:21:32.171Z,163.13
2019-05-11T12:22:32.184Z,191.25
2019-05-11T12:23:32.205Z,180.00
2019-05-11T12:24:32.215Z,180.00
2019-05-11T12:25:32.234Z,185.63
2019-05-11T12:26:32.296Z,208.13
2019-05-11T12:27:32.274Z,202.50
2019-05-11T12:28:32.284Z,225.00
2019-05-11T12:29:32.303Z,236.25
2019-05-11T12:30:32.311Z,230.63
2019-05-11T12:31:32.740Z,225.00
2019-05-11T12:32:32.355Z,225.00
2019-05-11T12:33:32.367Z,258.75
2019-05-11T12:34:32.380Z,270.00
2019-05-11T12:35:32.395Z,275.63
2019-05-11T12:36:32.415Z,275.63
2019-05-11T12:37:32.433Z,270.00
2019-05-11T12:38:32.446Z,236.25
2019-05-11T12:39:32.465Z,230.63
2019-05-11T12:40:32.486Z,225.00
2019-05-11T12:41:32.501Z,236.25
2019-05-11T12:42:32.520Z,247.50
2019-05-11T12:43:32.532Z,247.50
2019-05-11T12:44:32.549Z,185.63
2019-05-11T12:45:32.560Z,180.00
2019-05-11T12:46:32.577Z,185.63